Time;durP1;ratioP1;P1;durP2;ratioP2;P2;SDS_P1;SDS_P2;PMS_P1;PMS_P2;Temp;Humidity;BMP_temperature;BMP_pressure;BME280_temperature;BME280_humidity;BME280_pressure;Samples;Min_cycle;Max_cycle;Signal;HPM_P1;HPM_P2
2024/01/29 00:00:34;;;;;;;;;;;;;;;;;;2082281;28;19920;-77
2024/01/29 00:01:55;;;;;;;;;;;;;;;;;;2076227;28;19920;-77
2024/01/29 00:03:16;;;;;;;;;;;;;;;;;;2078013;28;20280;-77
2024/01/29 00:04:36;;;;;;;;;;;;;;;;;;2083158;28;19916;-76
2024/01/29 00:05:57;;;;;;;;;;;;;;;;;;2080543;28;19917;-76
2024/01/29 00:07:18;;;;;;;;;;;;;;;;;;2080569;28;20368;-77
2024/01/29 00:08:38;;;;;;;;;;;;;;;;;;2084604;28;19909;-78
2024/01/29 00:09:59;;;;;;;;;;;;;;;;;;2075318;28;20449;-78
2024/01/29 00:11:20;;;;;;;;;;;;;;;;;;2084635;28;19919;-78
2024/01/29 00:12:41;;;;;;;;;;;;;;;;;;2088120;28;19915;-78
2024/01/29 00:14:01;;;;;;;;;;;;;;;;;;2078016;28;19917;-78
2024/01/29 00:15:22;;;;;;;;;;;;;;;;;;2077645;28;19913;-78
2024/01/29 00:16:43;;;;;;;;;;;;;;;;;;2072078;28;20377;-78
2024/01/29 00:18:04;;;;;;;;;;;;;;;;;;2071706;28;19981;-78
2024/01/29 00:19:25;;;;;;;;;;;;;;;;;;2078703;28;19955;-78
2024/01/29 00:20:46;;;;;;;;;;;;;;;;;;2076000;28;20392;-78
2024/01/29 00:22:06;;;;;;;;;;;;;;;;;;2074512;28;19913;-78
2024/01/29 00:23:27;;;;;;;;;;;;;;;;;;2071779;28;20341;-78
2024/01/29 00:24:48;;;;;;;;;;;;;;;;;;2076033;28;19917;-78
2024/01/29 00:26:08;;;;;;;;;;;;;;;;;;2079801;28;19909;-78
2024/01/29 00:27:29;;;;;;;;;;;;;;;;;;2079710;28;19921;-77
2024/01/29 00:28:50;;;;;;;;;;;;;;;;;;2076259;28;20305;-77
2024/01/29 00:30:11;;;;;;;;;;;;;;;;;;2084860;28;20272;-79
2024/01/29 00:31:31;;;;;;;;;;;;;;;;;;2078471;28;19971;-78
2024/01/29 00:32:52;;;;;;;;;;;;;;;;;;2079237;28;19913;-77
2024/01/29 00:34:13;;;;;;;;;;;;;;;;;;2075331;28;20388;-79
2024/01/29 00:35:33;;;;;;;;;;;;;;;;;;2083672;28;20124;-78
2024/01/29 00:36:54;;;;;;;;;;;;;;;;;;2080172;28;19913;-77
2024/01/29 00:38:15;;;;;;;;;;;;;;;;;;2078428;28;19959;-78
2024/01/29 00:39:35;;;;;;;;;;;;;;;;;;2088537;28;20284;-77
2024/01/29 00:40:56;;;;;;;;;;;;;;;;;;2087618;28;19909;-78
2024/01/29 00:42:17;;;;;;;;;;;;;;;;;;2078240;28;19989;-78
2024/01/29 00:43:37;;;;;;;;;;;;;;;;;;2084457;28;19917;-77
2024/01/29 00:44:58;;;;;;;;;;;;;;;;;;2080834;28;20212;-77
2024/01/29 00:46:19;;;;;;;;;;;;;;;;;;2076762;28;19917;-77
2024/01/29 00:47:40;;;;;;;;;;;;;;;;;;2083415;28;19921;-77
2024/01/29 00:49:01;;;;;;;;;;;;;;;;;;2076521;28;19914;-77
2024/01/29 00:50:21;;;;;;;;;;;;;;;;;;2077960;28;19920;-77
2024/01/29 00:51:42;;;;;;;;;;;;;;;;;;2075251;28;19913;-77
2024/01/29 00:53:03;;;;;;;;;;;;;;;;;;2081122;28;19917;-77
2024/01/29 00:54:24;;;;;;;;;;;;;;;;;;2073961;28;19952;-77
2024/01/29 00:55:46;;;;;;;;;;;;;;;;;;2077158;28;19921;-77
2024/01/29 00:57:07;;;;;;;;;;;;;;;;;;2080675;28;20312;-77
2024/01/29 00:58:27;;;;;;;;;;;;;;;;;;2077433;28;19921;-77
2024/01/29 00:59:48;;;;;;;;;;;;;;;;;;2079265;28;20214;-77
2024/01/29 01:01:09;;;;;;;;;;;;;;;;;;2073818;28;19913;-77
2024/01/29 01:02:30;;;;;;;;;;;;;;;;;;2079980;28;19913;-78
2024/01/29 01:03:50;;;;;;;;;;;;;;;;;;2075694;28;20377;-78
2024/01/29 01:05:11;;;;;;;;;;;;;;;;;;2079580;28;19913;-78
2024/01/29 01:06:32;;;;;;;;;;;;;;;;;;2076104;28;19909;-78
2024/01/29 01:07:52;;;;;;;;;;;;;;;;;;2077717;28;19924;-77
2024/01/29 01:09:14;;;;;;;;;;;;;;;;;;2072807;28;20211;-78
2024/01/29 01:10:34;;;;;;;;;;;;;;;;;;2083255;28;19920;-77
2024/01/29 01:11:55;;;;;;;;;;;;;;;;;;2078146;28;20016;-78
2024/01/29 01:13:16;;;;;;;;;;;;;;;;;;2073174;28;20040;-77
2024/01/29 01:14:36;;;;;;;;;;;;;;;;;;2082076;28;19917;-78
2024/01/29 01:15:57;;;;;;;;;;;;;;;;;;2080260;28;20214;-78
2024/01/29 01:17:18;;;;;;;;;;;;;;;;;;2072327;28;19918;-78
2024/01/29 01:18:38;;;;;;;;;;;;;;;;;;2081367;28;20318;-76
2024/01/29 01:19:59;;;;;;;;;;;;;;;;;;2082212;28;19935;-75
2024/01/29 01:21:20;;;;;;;;;;;;;;;;;;2080059;28;19909;-76
2024/01/29 01:22:40;;;;;;;;;;;;;;;;;;2075178;28;20071;-76
2024/01/29 01:24:01;;;;;;;;;;;;;;;;;;2078577;28;19921;-76
2024/01/29 01:25:22;;;;;;;;;;;;;;;;;;2074620;28;20478;-76
2024/01/29 01:26:42;;;;;;;;;;;;;;;;;;2084871;28;19928;-75
2024/01/29 01:28:03;;;;;;;;;;;;;;;;;;2089608;28;19912;-75
2024/01/29 01:29:24;;;;;;;;;;;;;;;;;;2090009;28;19920;-76
2024/01/29 01:30:44;;;;;;;;;;;;;;;;;;2081488;28;19909;-76
2024/01/29 01:32:05;;;;;;;;;;;;;;;;;;2075644;28;19916;-76
2024/01/29 01:33:26;;;;;;;;;;;;;;;;;;2083927;28;19921;-76
2024/01/29 01:34:47;;;;;;;;;;;;;;;;;;2088279;28;19966;-76
2024/01/29 01:36:07;;;;;;;;;;;;;;;;;;2088851;28;20288;-76
2024/01/29 01:37:28;;;;;;;;;;;;;;;;;;2080675;28;19924;-76
2024/01/29 01:38:49;;;;;;;;;;;;;;;;;;2087313;28;19917;-76
2024/01/29 01:40:09;;;;;;;;;;;;;;;;;;2080765;28;19921;-76
2024/01/29 01:41:30;;;;;;;;;;;;;;;;;;2087637;28;20470;-76
2024/01/29 01:42:51;;;;;;;;;;;;;;;;;;2087036;28;19909;-76
2024/01/29 01:44:11;;;;;;;;;;;;;;;;;;2081261;28;19924;-76
2024/01/29 01:45:32;;;;;;;;;;;;;;;;;;2081850;28;20285;-76
2024/01/29 01:46:53;;;;;;;;;;;;;;;;;;2084872;28;20172;-76
2024/01/29 01:48:13;;;;;;;;;;;;;;;;;;2086208;28;19913;-76
2024/01/29 01:49:34;;;;;;;;;;;;;;;;;;2088155;28;20300;-76
2024/01/29 01:50:55;;;;;;;;;;;;;;;;;;2080361;28;19916;-76
2024/01/29 01:52:15;;;;;;;;;;;;;;;;;;2084312;28;20394;-77
2024/01/29 01:53:36;;;;;;;;;;;;;;;;;;2078069;28;20513;-77
2024/01/29 01:54:59;;;;;;;;;;;;;;;;;;2074632;28;28585;-76
2024/01/29 01:56:19;;;;;;;;;;;;;;;;;;2084658;28;19913;-76
2024/01/29 01:57:40;;;;;;;;;;;;;;;;;;2079454;28;19921;-76
2024/01/29 01:59:01;;;;;;;;;;;;;;;;;;2076598;28;20266;-76
2024/01/29 02:00:21;;;;;;;;;;;;;;;;;;2076607;28;19913;-76
2024/01/29 02:01:42;;;;;;;;;;;;;;;;;;2079139;28;19913;-77
2024/01/29 02:03:03;;;;;;;;;;;;;;;;;;2079006;28;20587;-77
2024/01/29 02:04:24;;;;;;;;;;;;;;;;;;2076236;28;19921;-76
2024/01/29 02:05:45;;;;;;;;;;;;;;;;;;2074479;28;19917;-76
2024/01/29 02:07:05;;;;;;;;;;;;;;;;;;2084945;28;20394;-76
2024/01/29 02:08:26;;;;;;;;;;;;;;;;;;2078897;28;19913;-77
2024/01/29 02:09:47;;;;;;;;;;;;;;;;;;2070461;28;19917;-76
2024/01/29 02:11:07;;;;;;;;;;;;;;;;;;2078077;28;19914;-76
2024/01/29 02:12:28;;;;;;;;;;;;;;;;;;2076609;28;19921;-76
2024/01/29 02:13:49;;;;;;;;;;;;;;;;;;2081725;28;19921;-77
2024/01/29 02:15:10;;;;;;;;;;;;;;;;;;2075402;28;19933;-76
2024/01/29 02:16:30;;;;;;;;;;;;;;;;;;2082256;28;19917;-76
2024/01/29 02:17:51;;;;;;;;;;;;;;;;;;2082054;28;19913;-76
2024/01/29 02:19:12;;;;;;;;;;;;;;;;;;2076000;28;19964;-76
2024/01/29 02:20:32;;;;;;;;;;;;;;;;;;2084802;28;19921;-75
2024/01/29 02:21:53;;;;;;;;;;;;;;;;;;2082448;28;19920;-76
2024/01/29 02:23:14;;;;;;;;;;;;;;;;;;2084684;28;20422;-76
2024/01/29 02:24:35;;;;;;;;;;;;;;;;;;2077724;28;20329;-75
2024/01/29 02:25:56;;;;;;;;;;;;;;;;;;2083758;28;19913;-76
2024/01/29 02:27:16;;;;;;;;;;;;;;;;;;2073457;28;20237;-77
2024/01/29 02:28:37;;;;;;;;;;;;;;;;;;2082923;28;20213;-77
2024/01/29 02:29:58;;;;;;;;;;;;;;;;;;2075191;28;20413;-76
2024/01/29 02:31:18;;;;;;;;;;;;;;;;;;2075836;28;19913;-76
2024/01/29 02:32:39;;;;;;;;;;;;;;;;;;2071326;28;19921;-77
2024/01/29 02:34:00;;;;;;;;;;;;;;;;;;2083482;28;19999;-77
2024/01/29 02:35:22;;;;;;;;;;;;;;;;;;2083250;28;19929;-77
2024/01/29 02:36:43;;;;;;;;;;;;;;;;;;2077877;28;19925;-77
2024/01/29 02:38:03;;;;;;;;;;;;;;;;;;2072124;28;19917;-77
2024/01/29 02:39:24;;;;;;;;;;;;;;;;;;2083027;28;20216;-77
2024/01/29 02:40:45;;;;;;;;;;;;;;;;;;2081120;28;19928;-77
2024/01/29 02:42:05;;;;;;;;;;;;;;;;;;2083658;28;20345;-77
2024/01/29 02:43:26;;;;;;;;;;;;;;;;;;2072949;28;19936;-77
2024/01/29 02:44:47;;;;;;;;;;;;;;;;;;2071822;28;19925;-77
2024/01/29 02:46:07;;;;;;;;;;;;;;;;;;2079760;28;20373;-77
2024/01/29 02:47:28;;;;;;;;;;;;;;;;;;2083670;28;19913;-77
2024/01/29 02:48:49;;;;;;;;;;;;;;;;;;2079675;28;19984;-77
2024/01/29 02:50:10;;;;;;;;;;;;;;;;;;2080617;28;19942;-77
2024/01/29 02:51:31;;;;;;;;;;;;;;;;;;2083642;28;19913;-77
2024/01/29 02:52:51;;;;;;;;;;;;;;;;;;2087785;28;19913;-77
2024/01/29 02:54:12;;;;;;;;;;;;;;;;;;2077358;28;20523;-77
2024/01/29 02:55:33;;;;;;;;;;;;;;;;;;2080232;28;19936;-77
2024/01/29 02:56:53;;;;;;;;;;;;;;;;;;2085423;28;20284;-77
2024/01/29 02:58:14;;;;;;;;;;;;;;;;;;2082866;28;19921;-77
2024/01/29 02:59:35;;;;;;;;;;;;;;;;;;2073794;28;19921;-77
2024/01/29 03:00:55;;;;;;;;;;;;;;;;;;2083522;28;20314;-77
2024/01/29 03:02:16;;;;;;;;;;;;;;;;;;2075446;28;19918;-77
2024/01/29 03:03:37;;;;;;;;;;;;;;;;;;2081233;28;19920;-77
2024/01/29 03:04:58;;;;;;;;;;;;;;;;;;2075770;28;19917;-77
2024/01/29 03:06:18;;;;;;;;;;;;;;;;;;2081874;28;19916;-77
2024/01/29 03:07:39;;;;;;;;;;;;;;;;;;2080822;28;19909;-77
2024/01/29 03:09:00;;;;;;;;;;;;;;;;;;2078571;28;20280;-77
2024/01/29 03:10:20;;;;;;;;;;;;;;;;;;2077375;28;19936;-77
2024/01/29 03:11:41;;;;;;;;;;;;;;;;;;2075617;28;19913;-77
2024/01/29 03:13:05;;;;;;;;;;;;;;;;;;2080983;28;19913;-77
2024/01/29 03:14:25;;;;;;;;;;;;;;;;;;2080480;28;19913;-77
2024/01/29 03:15:46;;;;;;;;;;;;;;;;;;2079030;28;19909;-77
2024/01/29 03:17:07;;;;;;;;;;;;;;;;;;2081405;28;19920;-77
2024/01/29 03:18:27;;;;;;;;;;;;;;;;;;2076551;28;20063;-77
2024/01/29 03:19:48;;;;;;;;;;;;;;;;;;2072294;28;19920;-77
2024/01/29 03:21:09;;;;;;;;;;;;;;;;;;2069904;28;19909;-77
2024/01/29 03:22:29;;;;;;;;;;;;;;;;;;2070369;28;19993;-77
2024/01/29 03:23:50;;;;;;;;;;;;;;;;;;2070715;28;19909;-77
2024/01/29 03:25:11;;;;;;;;;;;;;;;;;;2075252;28;19917;-77
2024/01/29 03:26:31;;;;;;;;;;;;;;;;;;2074669;28;20295;-77
2024/01/29 03:27:52;;;;;;;;;;;;;;;;;;2086171;28;19909;-77
2024/01/29 03:29:13;;;;;;;;;;;;;;;;;;2075896;28;19932;-77
2024/01/29 03:30:33;;;;;;;;;;;;;;;;;;2074077;28;19921;-77
2024/01/29 03:31:54;;;;;;;;;;;;;;;;;;2084358;28;19913;-77
2024/01/29 03:33:15;;;;;;;;;;;;;;;;;;2089212;28;19948;-77
2024/01/29 03:34:36;;;;;;;;;;;;;;;;;;2087454;28;19917;-77
2024/01/29 03:35:56;;;;;;;;;;;;;;;;;;2086159;28;20384;-77
2024/01/29 03:37:17;;;;;;;;;;;;;;;;;;2077798;28;19917;-77
2024/01/29 03:38:38;;;;;;;;;;;;;;;;;;2075875;28;19913;-77
2024/01/29 03:39:58;;;;;;;;;;;;;;;;;;2086232;28;19928;-77
2024/01/29 03:41:19;;;;;;;;;;;;;;;;;;2087443;28;20377;-77
2024/01/29 03:42:40;;;;;;;;;;;;;;;;;;2080636;28;19913;-77
2024/01/29 03:44:00;;;;;;;;;;;;;;;;;;2085551;28;19913;-77
2024/01/29 03:45:21;;;;;;;;;;;;;;;;;;2083640;28;20300;-77
2024/01/29 03:46:42;;;;;;;;;;;;;;;;;;2087435;28;20409;-77
2024/01/29 03:48:03;;;;;;;;;;;;;;;;;;2078351;28;19917;-77
2024/01/29 03:49:23;;;;;;;;;;;;;;;;;;2080734;28;20011;-76
2024/01/29 03:50:44;;;;;;;;;;;;;;;;;;2076661;28;19940;-77
2024/01/29 03:52:05;;;;;;;;;;;;;;;;;;2072767;28;19924;-76
2024/01/29 03:53:25;;;;;;;;;;;;;;;;;;2083481;28;19913;-76
2024/01/29 03:54:46;;;;;;;;;;;;;;;;;;2079770;28;19921;-76
2024/01/29 03:56:07;;;;;;;;;;;;;;;;;;2075866;28;19914;-77
2024/01/29 03:57:27;;;;;;;;;;;;;;;;;;2079979;28;19927;-77
2024/01/29 03:58:48;;;;;;;;;;;;;;;;;;2076087;28;19913;-76
2024/01/29 04:00:09;;;;;;;;;;;;;;;;;;2083629;28;19921;-77
2024/01/29 04:01:30;;;;;;;;;;;;;;;;;;2084620;28;20313;-76
2024/01/29 04:02:50;;;;;;;;;;;;;;;;;;2079426;28;20405;-76
2024/01/29 04:04:11;;;;;;;;;;;;;;;;;;2085595;28;19939;-77
2024/01/29 04:05:32;;;;;;;;;;;;;;;;;;2079225;28;20439;-76
2024/01/29 04:06:53;;;;;;;;;;;;;;;;;;2076152;28;19920;-77
2024/01/29 04:08:13;;;;;;;;;;;;;;;;;;2084305;28;19921;-76
2024/01/29 04:09:34;;;;;;;;;;;;;;;;;;2086483;28;20495;-76
2024/01/29 04:10:55;;;;;;;;;;;;;;;;;;2080173;28;19913;-76
2024/01/29 04:12:15;;;;;;;;;;;;;;;;;;2076826;28;19913;-76
2024/01/29 04:13:36;;;;;;;;;;;;;;;;;;2084607;28;20441;-77
2024/01/29 04:14:57;;;;;;;;;;;;;;;;;;2080360;28;19936;-77
2024/01/29 04:16:17;;;;;;;;;;;;;;;;;;2077606;28;19917;-77
2024/01/29 04:17:38;;;;;;;;;;;;;;;;;;2079388;28;19932;-77
2024/01/29 04:18:59;;;;;;;;;;;;;;;;;;2076603;28;20004;-76
2024/01/29 04:20:19;;;;;;;;;;;;;;;;;;2083215;28;19921;-76
2024/01/29 04:21:40;;;;;;;;;;;;;;;;;;2084623;28;19935;-76
2024/01/29 04:23:01;;;;;;;;;;;;;;;;;;2077691;28;19913;-76
2024/01/29 04:24:21;;;;;;;;;;;;;;;;;;2079496;28;20288;-76
2024/01/29 04:25:42;;;;;;;;;;;;;;;;;;2078339;28;19999;-76
2024/01/29 04:27:03;;;;;;;;;;;;;;;;;;2071141;28;19910;-76
2024/01/29 04:28:23;;;;;;;;;;;;;;;;;;2069879;28;20263;-76
2024/01/29 04:29:44;;;;;;;;;;;;;;;;;;2086054;28;20007;-76
2024/01/29 04:31:05;;;;;;;;;;;;;;;;;;2082776;28;20277;-76
2024/01/29 04:32:25;;;;;;;;;;;;;;;;;;2080023;28;19916;-77
2024/01/29 04:33:46;;;;;;;;;;;;;;;;;;2080125;28;19909;-77
2024/01/29 04:35:07;;;;;;;;;;;;;;;;;;2078995;28;19913;-77
2024/01/29 04:36:27;;;;;;;;;;;;;;;;;;2082999;28;19913;-76
2024/01/29 04:37:48;;;;;;;;;;;;;;;;;;2083445;28;19917;-77
2024/01/29 04:39:09;;;;;;;;;;;;;;;;;;2084242;28;19909;-76
2024/01/29 04:40:30;;;;;;;;;;;;;;;;;;2080700;28;19920;-76
2024/01/29 04:41:50;;;;;;;;;;;;;;;;;;2079659;28;19909;-77
2024/01/29 04:43:11;;;;;;;;;;;;;;;;;;2075986;28;19917;-77
2024/01/29 04:44:32;;;;;;;;;;;;;;;;;;2079955;28;19913;-77
2024/01/29 04:45:52;;;;;;;;;;;;;;;;;;2077167;28;20284;-77
2024/01/29 04:47:13;;;;;;;;;;;;;;;;;;2079178;28;19924;-77
2024/01/29 04:48:34;;;;;;;;;;;;;;;;;;2079195;28;19920;-77
2024/01/29 04:49:55;;;;;;;;;;;;;;;;;;2074945;28;19914;-77
2024/01/29 04:51:16;;;;;;;;;;;;;;;;;;2073077;28;19913;-78
2024/01/29 04:52:36;;;;;;;;;;;;;;;;;;2073343;28;19913;-78
2024/01/29 04:53:57;;;;;;;;;;;;;;;;;;2080347;28;20283;-78
2024/01/29 04:55:18;;;;;;;;;;;;;;;;;;2071036;28;19914;-77
2024/01/29 04:56:38;;;;;;;;;;;;;;;;;;2077407;28;19909;-78
2024/01/29 04:57:59;;;;;;;;;;;;;;;;;;2068761;28;19921;-78
2024/01/29 04:59:20;;;;;;;;;;;;;;;;;;2072718;28;20352;-77
2024/01/29 05:00:40;;;;;;;;;;;;;;;;;;2076927;28;19914;-78
2024/01/29 05:02:01;;;;;;;;;;;;;;;;;;2069806;28;19917;-78
2024/01/29 05:03:22;;;;;;;;;;;;;;;;;;2073482;28;20009;-78
2024/01/29 05:04:42;;;;;;;;;;;;;;;;;;2078676;28;19921;-77
2024/01/29 05:06:03;;;;;;;;;;;;;;;;;;2082663;28;20320;-78
2024/01/29 05:07:24;;;;;;;;;;;;;;;;;;2084652;28;19913;-77
2024/01/29 05:08:45;;;;;;;;;;;;;;;;;;2081268;28;19936;-78
2024/01/29 05:10:05;;;;;;;;;;;;;;;;;;2071738;28;19910;-77
2024/01/29 05:11:26;;;;;;;;;;;;;;;;;;2073294;28;19953;-77
2024/01/29 05:12:47;;;;;;;;;;;;;;;;;;2069313;28;19909;-78
2024/01/29 05:14:08;;;;;;;;;;;;;;;;;;2070319;28;19921;-78
2024/01/29 05:15:28;;;;;;;;;;;;;;;;;;2076898;28;19936;-78
2024/01/29 05:16:49;;;;;;;;;;;;;;;;;;2084930;28;19909;-77
2024/01/29 05:18:10;;;;;;;;;;;;;;;;;;2076004;28;19958;-77
2024/01/29 05:19:30;;;;;;;;;;;;;;;;;;2078564;28;20373;-77
2024/01/29 05:20:51;;;;;;;;;;;;;;;;;;2076381;28;19913;-77
2024/01/29 05:22:12;;;;;;;;;;;;;;;;;;2084516;28;19959;-78
2024/01/29 05:23:33;;;;;;;;;;;;;;;;;;2088424;28;19913;-78
2024/01/29 05:24:54;;;;;;;;;;;;;;;;;;2080065;28;19967;-77
2024/01/29 05:26:15;;;;;;;;;;;;;;;;;;2074228;28;20001;-78
2024/01/29 05:27:36;;;;;;;;;;;;;;;;;;2079200;28;19932;-77
2024/01/29 05:28:56;;;;;;;;;;;;;;;;;;2078485;28;19909;-78
2024/01/29 05:30:17;;;;;;;;;;;;;;;;;;2079247;28;19924;-78
2024/01/29 05:31:38;;;;;;;;;;;;;;;;;;2080536;28;19932;-77
2024/01/29 05:32:58;;;;;;;;;;;;;;;;;;2086883;28;19916;-77
2024/01/29 05:34:19;;;;;;;;;;;;;;;;;;2088373;28;19909;-78
2024/01/29 05:35:40;;;;;;;;;;;;;;;;;;2074343;28;19925;-77
2024/01/29 05:37:00;;;;;;;;;;;;;;;;;;2080171;28;20459;-78
2024/01/29 05:38:21;;;;;;;;;;;;;;;;;;2076976;28;20312;-77
2024/01/29 05:39:42;;;;;;;;;;;;;;;;;;2080005;28;19962;-77
2024/01/29 05:41:02;;;;;;;;;;;;;;;;;;2070864;28;19920;-78
2024/01/29 05:42:23;;;;;;;;;;;;;;;;;;2079027;28;19958;-78
2024/01/29 05:43:44;;;;;;;;;;;;;;;;;;2071016;28;19917;-78
2024/01/29 05:45:05;;;;;;;;;;;;;;;;;;2084431;28;19913;-78
2024/01/29 05:46:26;;;;;;;;;;;;;;;;;;2082158;28;19951;-78
2024/01/29 05:47:47;;;;;;;;;;;;;;;;;;2080817;28;20349;-78
2024/01/29 05:49:07;;;;;;;;;;;;;;;;;;2082431;28;20030;-78
2024/01/29 05:50:28;;;;;;;;;;;;;;;;;;2074616;28;19913;-78
2024/01/29 05:51:49;;;;;;;;;;;;;;;;;;2081546;28;19913;-78
2024/01/29 05:53:10;;;;;;;;;;;;;;;;;;2084847;28;19909;-78
2024/01/29 05:54:31;;;;;;;;;;;;;;;;;;2076448;28;19921;-77
2024/01/29 05:55:51;;;;;;;;;;;;;;;;;;2078836;28;19971;-77
2024/01/29 05:57:12;;;;;;;;;;;;;;;;;;2087837;28;19909;-77
2024/01/29 05:58:34;;;;;;;;;;;;;;;;;;2078745;28;19913;-78
2024/01/29 05:59:55;;;;;;;;;;;;;;;;;;2076048;28;19909;-78
2024/01/29 06:01:16;;;;;;;;;;;;;;;;;;2086125;28;19916;-77
2024/01/29 06:02:42;;;;;;;;;;;;;;;;;;2086702;28;20395;-77
2024/01/29 06:04:03;;;;;;;;;;;;;;;;;;2072097;28;19913;-77
2024/01/29 06:05:23;;;;;;;;;;;;;;;;;;2074518;28;19959;-77
2024/01/29 06:06:44;;;;;;;;;;;;;;;;;;2077357;28;20301;-77
2024/01/29 06:08:05;;;;;;;;;;;;;;;;;;2074845;28;20007;-77
2024/01/29 06:09:25;;;;;;;;;;;;;;;;;;2079073;28;19913;-77
2024/01/29 06:10:46;;;;;;;;;;;;;;;;;;2081417;28;19913;-77
2024/01/29 06:12:07;;;;;;;;;;;;;;;;;;2084230;28;19979;-77
2024/01/29 06:13:28;;;;;;;;;;;;;;;;;;2078928;28;19912;-77
2024/01/29 06:14:48;;;;;;;;;;;;;;;;;;2076814;28;19913;-76
2024/01/29 06:16:09;;;;;;;;;;;;;;;;;;2083234;28;19960;-77
2024/01/29 06:17:30;;;;;;;;;;;;;;;;;;2075668;28;19917;-77
2024/01/29 06:18:50;;;;;;;;;;;;;;;;;;2083628;28;20012;-77
2024/01/29 06:20:14;;;;;;;;;;;;;;;;;;2085999;28;19913;-77
2024/01/29 06:21:34;;;;;;;;;;;;;;;;;;2075128;28;19924;-77
2024/01/29 06:22:55;;;;;;;;;;;;;;;;;;2076188;28;19913;-77
2024/01/29 06:24:16;;;;;;;;;;;;;;;;;;2081758;28;19935;-77
2024/01/29 06:25:36;;;;;;;;;;;;;;;;;;2078076;28;20007;-77
2024/01/29 06:26:57;;;;;;;;;;;;;;;;;;2072127;28;19913;-77
2024/01/29 06:28:18;;;;;;;;;;;;;;;;;;2082584;28;20354;-77
2024/01/29 06:29:39;;;;;;;;;;;;;;;;;;2073019;28;20281;-77
2024/01/29 06:30:59;;;;;;;;;;;;;;;;;;2069676;28;19920;-78
2024/01/29 06:32:20;;;;;;;;;;;;;;;;;;2078163;28;20368;-78
2024/01/29 06:33:41;;;;;;;;;;;;;;;;;;2081111;28;20357;-78
2024/01/29 06:35:01;;;;;;;;;;;;;;;;;;2076524;28;19976;-77
2024/01/29 06:36:23;;;;;;;;;;;;;;;;;;2078453;28;19983;-78
2024/01/29 06:37:44;;;;;;;;;;;;;;;;;;2072493;28;20262;-78
2024/01/29 06:39:07;;;;;;;;;;;;;;;;;;2071985;28;19909;-78
2024/01/29 06:40:28;;;;;;;;;;;;;;;;;;2079799;28;20380;-79
2024/01/29 06:41:48;;;;;;;;;;;;;;;;;;2093443;28;20288;-78
2024/01/29 06:43:09;;;;;;;;;;;;;;;;;;2092324;28;19916;-77
2024/01/29 06:44:30;;;;;;;;;;;;;;;;;;2080752;28;19916;-79
2024/01/29 06:45:50;;;;;;;;;;;;;;;;;;2085536;28;20313;-79
2024/01/29 06:47:12;;;;;;;;;;;;;;;;;;2079771;28;19921;-79
2024/01/29 06:48:36;;;;;;;;;;;;;;;;;;2077988;28;19917;-79
2024/01/29 06:49:58;;;;;;;;;;;;;;;;;;2078587;28;19913;-79
2024/01/29 06:51:20;;;;;;;;;;;;;;;;;;2085797;28;20300;-79
2024/01/29 06:52:41;;;;;;;;;;;;;;;;;;2088263;28;20356;-79
2024/01/29 06:54:03;;;;;;;;;;;;;;;;;;2087983;28;20380;-79
2024/01/29 06:55:24;;;;;;;;;;;;;;;;;;2080670;28;20443;-78
2024/01/29 06:56:45;;;;;;;;;;;;;;;;;;2079012;28;19925;-78
2024/01/29 06:58:06;;;;;;;;;;;;;;;;;;2077397;28;19921;-78
2024/01/29 06:59:26;;;;;;;;;;;;;;;;;;2081132;28;19909;-78
2024/01/29 07:00:47;;;;;;;;;;;;;;;;;;2079127;28;19913;-80
2024/01/29 07:02:08;;;;;;;;;;;;;;;;;;2074292;28;19940;-79
2024/01/29 07:03:29;;;;;;;;;;;;;;;;;;2072369;28;19910;-79
2024/01/29 07:04:49;;;;;;;;;;;;;;;;;;2068857;28;20352;-78
2024/01/29 07:06:10;;;;;;;;;;;;;;;;;;2068605;28;20244;-77
2024/01/29 07:07:31;;;;;;;;;;;;;;;;;;2069219;28;19910;-78
2024/01/29 07:08:51;;;;;;;;;;;;;;;;;;2077012;28;19913;-78
2024/01/29 07:10:14;;;;;;;;;;;;;;;;;;2085606;28;19912;-78
2024/01/29 07:11:35;;;;;;;;;;;;;;;;;;2078919;28;19913;-81
2024/01/29 07:12:55;;;;;;;;;;;;;;;;;;2086938;28;19908;-79
2024/01/29 07:14:16;;;;;;;;;;;;;;;;;;2082402;28;20109;-81
2024/01/29 07:15:37;;;;;;;;;;;;;;;;;;2085960;28;19920;-82
2024/01/29 07:16:58;;;;;;;;;;;;;;;;;;2088768;28;19920;-79
2024/01/29 07:18:19;;;;;;;;;;;;;;;;;;2082066;28;19913;-81
2024/01/29 07:19:40;;;;;;;;;;;;;;;;;;2081354;28;19909;-82
2024/01/29 07:21:02;;;;;;;;;;;;;;;;;;2082567;28;19916;-81
2024/01/29 07:22:24;;;;;;;;;;;;;;;;;;2075327;28;19909;-85
2024/01/29 07:23:45;;;;;;;;;;;;;;;;;;2080268;28;19921;-83
2024/01/29 07:25:05;;;;;;;;;;;;;;;;;;2073989;28;19910;-83
2024/01/29 07:26:27;;;;;;;;;;;;;;;;;;2075959;28;19917;-84
2024/01/29 07:27:48;;;;;;;;;;;;;;;;;;2080413;28;19913;-83
2024/01/29 07:29:09;;;;;;;;;;;;;;;;;;2086551;28;19920;-84
2024/01/29 07:30:29;;;;;;;;;;;;;;;;;;2081072;28;19909;-83
2024/01/29 07:31:52;;;;;;;;;;;;;;;;;;2084998;28;19912;-83
2024/01/29 07:33:13;;;;;;;;;;;;;;;;;;2080267;28;20012;-83
2024/01/29 07:34:34;;;;;;;;;;;;;;;;;;2079154;28;20286;-85
2024/01/29 07:35:55;;;;;;;;;;;;;;;;;;2077305;28;19917;-85
2024/01/29 07:37:15;;;;;;;;;;;;;;;;;;2077758;28;19929;-83
2024/01/29 07:38:36;;;;;;;;;;;;;;;;;;2085942;28;20007;-83
2024/01/29 07:39:57;;;;;;;;;;;;;;;;;;2085303;28;19909;-85
2024/01/29 07:41:18;;;;;;;;;;;;;;;;;;2083354;28;19909;-83
2024/01/29 07:42:38;;;;;;;;;;;;;;;;;;2083882;28;19913;-81
2024/01/29 07:43:59;;;;;;;;;;;;;;;;;;2089293;28;19917;-86
2024/01/29 07:45:20;;;;;;;;;;;;;;;;;;2080273;28;20284;-85
2024/01/29 07:46:40;;;;;;;;;;;;;;;;;;2077560;28;19945;-83
2024/01/29 07:48:04;;;;;;;;;;;;;;;;;;2081100;28;19913;-84
2024/01/29 07:49:27;;;;;;;;;;;;;;;;;;2076122;28;19913;-87
2024/01/29 07:50:48;;;;;;;;;;;;;;;;;;2082552;28;20334;-82
2024/01/29 07:52:09;;;;;;;;;;;;;;;;;;2076215;28;19948;-84
2024/01/29 07:53:30;;;;;;;;;;;;;;;;;;2081697;28;19909;-85
2024/01/29 07:54:50;;;;;;;;;;;;;;;;;;2077899;28;19948;-86
2024/01/29 07:56:11;;;;;;;;;;;;;;;;;;2084688;28;19943;-85
2024/01/29 07:57:32;;;;;;;;;;;;;;;;;;2095259;28;19925;-83
2024/01/29 07:58:53;;;;;;;;;;;;;;;;;;2081764;28;20285;-84
2024/01/29 08:00:13;;;;;;;;;;;;;;;;;;2070054;28;19917;-84
2024/01/29 08:01:34;;;;;;;;;;;;;;;;;;2083571;28;20272;-84
2024/01/29 08:02:55;;;;;;;;;;;;;;;;;;2074603;28;19920;-85
2024/01/29 08:04:15;;;;;;;;;;;;;;;;;;2078767;28;19909;-84
2024/01/29 08:05:36;;;;;;;;;;;;;;;;;;2085100;28;19909;-83
2024/01/29 08:06:58;;;;;;;;;;;;;;;;;;2087079;28;19921;-83
2024/01/29 08:08:19;;;;;;;;;;;;;;;;;;2072322;28;19917;-84
2024/01/29 08:09:39;;;;;;;;;;;;;;;;;;2084237;28;19940;-84
2024/01/29 08:11:00;;;;;;;;;;;;;;;;;;2088535;28;19924;-82
2024/01/29 08:12:21;;;;;;;;;;;;;;;;;;2078747;28;20029;-84
2024/01/29 08:13:42;;;;;;;;;;;;;;;;;;2075640;28;20294;-84
2024/01/29 08:15:02;;;;;;;;;;;;;;;;;;2086355;28;19913;-84
2024/01/29 08:16:23;;;;;;;;;;;;;;;;;;2078498;28;19917;-82
2024/01/29 08:17:44;;;;;;;;;;;;;;;;;;2077887;28;20169;-83
2024/01/29 08:19:05;;;;;;;;;;;;;;;;;;2089734;28;19982;-80
2024/01/29 08:20:27;;;;;;;;;;;;;;;;;;2077752;28;19913;-84
2024/01/29 08:21:47;;;;;;;;;;;;;;;;;;2086416;28;19908;-77
2024/01/29 08:23:08;;;;;;;;;;;;;;;;;;2087561;28;20072;-78
2024/01/29 08:24:29;;;;;;;;;;;;;;;;;;2081738;28;19916;-78
2024/01/29 08:25:50;;;;;;;;;;;;;;;;;;2084499;28;19913;-77
2024/01/29 08:27:10;;;;;;;;;;;;;;;;;;2076737;28;20447;-77
2024/01/29 08:28:31;;;;;;;;;;;;;;;;;;2082028;28;19916;-78
2024/01/29 08:29:52;;;;;;;;;;;;;;;;;;2075573;28;19913;-77
2024/01/29 08:31:12;;;;;;;;;;;;;;;;;;2082610;28;20330;-78
2024/01/29 08:32:33;;;;;;;;;;;;;;;;;;2084711;28;19917;-78
2024/01/29 08:33:55;;;;;;;;;;;;;;;;;;2086895;28;19917;-77
2024/01/29 08:35:15;;;;;;;;;;;;;;;;;;2078141;28;19917;-78
2024/01/29 08:36:36;;;;;;;;;;;;;;;;;;2081925;28;20315;-78
2024/01/29 08:37:57;;;;;;;;;;;;;;;;;;2079658;28;19917;-78
2024/01/29 08:39:17;;;;;;;;;;;;;;;;;;2076872;28;19925;-78
2024/01/29 08:40:39;;;;;;;;;;;;;;;;;;2084630;28;19917;-78
2024/01/29 08:42:00;;;;;;;;;;;;;;;;;;2076802;28;19920;-78
2024/01/29 08:43:20;;;;;;;;;;;;;;;;;;2075536;28;20032;-78
2024/01/29 08:44:41;;;;;;;;;;;;;;;;;;2076637;28;19983;-78
2024/01/29 08:46:02;;;;;;;;;;;;;;;;;;2074836;28;19921;-78
2024/01/29 08:47:22;;;;;;;;;;;;;;;;;;2076636;28;19929;-77
2024/01/29 08:48:43;;;;;;;;;;;;;;;;;;2073775;28;19913;-78
2024/01/29 08:50:04;;;;;;;;;;;;;;;;;;2083015;28;19917;-78
2024/01/29 08:51:25;;;;;;;;;;;;;;;;;;2081894;28;19947;-78
2024/01/29 08:52:45;;;;;;;;;;;;;;;;;;2088123;28;19917;-77
2024/01/29 08:54:06;;;;;;;;;;;;;;;;;;2077363;28;19921;-77
2024/01/29 08:55:27;;;;;;;;;;;;;;;;;;2072968;28;19910;-77
2024/01/29 08:56:48;;;;;;;;;;;;;;;;;;2070050;28;19925;-78
2024/01/29 08:58:08;;;;;;;;;;;;;;;;;;2074165;28;20254;-78
2024/01/29 08:59:31;;;;;;;;;;;;;;;;;;2085461;28;19920;-78
2024/01/29 09:00:54;;;;;;;;;;;;;;;;;;2075958;28;19913;-78
2024/01/29 09:02:14;;;;;;;;;;;;;;;;;;2076474;28;19917;-77
2024/01/29 09:03:35;;;;;;;;;;;;;;;;;;2078391;28;20361;-78
2024/01/29 09:04:56;;;;;;;;;;;;;;;;;;2074162;28;19917;-78
2024/01/29 09:06:16;;;;;;;;;;;;;;;;;;2072512;28;19913;-78
2024/01/29 09:07:37;;;;;;;;;;;;;;;;;;2085129;28;20288;-78
2024/01/29 09:08:58;;;;;;;;;;;;;;;;;;2078694;28;20357;-78
2024/01/29 09:10:18;;;;;;;;;;;;;;;;;;2083372;28;20305;-78
2024/01/29 09:11:39;;;;;;;;;;;;;;;;;;2079509;28;19935;-78